Time;durP1;ratioP1;P1;durP2;ratioP2;P2;SDS_P1;SDS_P2;PMS_P1;PMS_P2;Temp;Humidity;BMP_temperature;BMP_pressure;BME280_temperature;BME280_humidity;BME280_pressure;Samples;Min_cycle;Max_cycle;Signal;HPM_P1;HPM_P2
2023/05/14 00:00:42;;;;;;;40.70;31.52;;;16.80;99.50;;;;;;5032895;28;20124;-71
2023/05/14 00:03:09;;;;;;;40.28;30.60;;;16.80;99.60;;;;;;5032734;28;20021;-71
2023/05/14 00:05:34;;;;;;;43.10;32.15;;;16.70;99.60;;;;;;5032835;28;20033;-71
2023/05/14 00:08:00;;;;;;;39.67;29.75;;;16.80;99.60;;;;;;5032957;28;20022;-71
2023/05/14 00:10:26;;;;;;;40.90;30.13;;;16.80;99.60;;;;;;5035013;28;20043;-71
2023/05/14 00:12:52;;;;;;;35.83;30.38;;;16.70;99.70;;;;;;5036878;28;20021;-71
2023/05/14 00:15:18;;;;;;;39.80;30.98;;;16.70;99.80;;;;;;5036818;28;20032;-71
2023/05/14 00:17:44;;;;;;;38.83;31.70;;;16.80;99.70;;;;;;5036589;28;20025;-71
2023/05/14 00:20:11;;;;;;;43.67;31.17;;;16.60;99.80;;;;;;5036663;28;20482;-71
2023/05/14 00:22:37;;;;;;;41.47;30.60;;;16.60;99.90;;;;;;5036828;28;20382;-71
2023/05/14 00:25:03;;;;;;;39.08;30.98;;;16.60;99.90;;;;;;5036722;28;20032;-71
2023/05/14 00:27:28;;;;;;;40.92;31.13;;;16.50;99.90;;;;;;5036436;28;20038;-71
2023/05/14 00:29:54;;;;;;;37.85;29.70;;;16.50;99.90;;;;;;5036548;28;20466;-71
2023/05/14 00:32:19;;;;;;;38.90;31.20;;;16.50;99.90;;;;;;5036463;28;20087;-71
2023/05/14 00:34:45;;;;;;;34.92;30.65;;;16.50;99.90;;;;;;5035237;28;20116;-71
2023/05/14 00:37:11;;;;;;;40.17;30.48;;;16.40;99.90;;;;;;5036448;28;20025;-71
2023/05/14 00:39:36;;;;;;;39.40;31.45;;;16.50;99.90;;;;;;5036301;28;20036;-71
2023/05/14 00:42:02;;;;;;;40.85;28.77;;;16.40;99.90;;;;;;5035755;28;20030;-71
2023/05/14 00:44:28;;;;;;;37.50;28.92;;;16.40;99.90;;;;;;5036226;28;20049;-71
2023/05/14 00:46:54;;;;;;;38.20;30.58;;;16.50;99.90;;;;;;5036126;28;20072;-71
2023/05/14 00:49:20;;;;;;;36.08;28.75;;;16.50;99.90;;;;;;5036454;28;20467;-71
2023/05/14 00:51:46;;;;;;;38.13;29.45;;;16.40;99.90;;;;;;5036316;28;20025;-71
2023/05/14 00:54:16;;;;;;;39.10;28.77;;;16.40;99.90;;;;;;5034914;28;20032;-72
2023/05/14 00:56:44;;;;;;;43.28;29.98;;;16.30;99.90;;;;;;5035938;28;20041;-71
2023/05/14 00:59:10;;;;;;;38.13;28.58;;;16.40;99.90;;;;;;5036067;28;20033;-72
2023/05/14 01:01:36;;;;;;;36.08;29.10;;;16.40;99.90;;;;;;5035683;28;20033;-72
2023/05/14 01:04:03;;;;;;;43.17;30.73;;;16.30;99.90;;;;;;5036082;28;20040;-72
2023/05/14 01:07:05;;;;;;;38.45;28.83;;;16.30;99.90;;;;;;5036376;28;20028;-72
2023/05/14 01:09:54;;;;;;;40.85;30.67;;;16.30;99.90;;;;;;5035925;28;20029;-72
2023/05/14 01:12:36;;;;;;;41.78;28.33;;;16.30;99.90;;;;;;5035848;28;20057;-72
2023/05/14 01:15:09;;;;;;;41.85;29.70;;;16.20;99.90;;;;;;5035768;28;20018;-72
2023/05/14 01:17:42;;;;;;;38.13;28.70;;;16.20;99.90;;;;;;5035399;28;20021;-72
2023/05/14 01:20:08;;;;;;;40.40;29.02;;;16.20;99.90;;;;;;5035510;28;20371;-72
2023/05/14 01:22:34;;;;;;;41.83;29.95;;;16.20;99.90;;;;;;5035514;28;20370;-71
2023/05/14 01:24:59;;;;;;;44.38;31.35;;;16.20;99.90;;;;;;5035536;28;20026;-71
2023/05/14 01:27:26;;;;;;;37.15;30.13;;;16.20;99.90;;;;;;5035378;28;20082;-72
2023/05/14 01:30:29;;;;;;;37.55;29.75;;;16.20;99.90;;;;;;5035627;28;20022;-71
2023/05/14 01:32:58;;;;;;;44.60;31.25;;;16.20;99.90;;;;;;5035408;28;20067;-71
2023/05/14 01:35:28;;;;;;;39.75;32.30;;;16.20;99.90;;;;;;5035717;28;20029;-71
2023/05/14 01:37:57;;;;;;;44.58;30.85;;;16.20;99.90;;;;;;5035298;28;20057;-71
2023/05/14 01:40:23;;;;;;;44.92;33.40;;;16.20;99.90;;;;;;5035099;28;20040;-71
2023/05/14 01:42:50;;;;;;;39.83;31.40;;;16.10;99.90;;;;;;5035217;28;20021;-71
2023/05/14 01:45:18;;;;;;;49.50;33.80;;;16.20;99.90;;;;;;5035063;28;20022;-71
2023/05/14 01:47:44;;;;;;;41.97;31.55;;;16.20;99.90;;;;;;5035229;28;20032;-71
2023/05/14 01:50:10;;;;;;;41.40;31.88;;;16.20;99.90;;;;;;5035154;28;20029;-71
2023/05/14 01:52:35;;;;;;;37.13;31.45;;;16.20;99.90;;;;;;5035124;28;20021;-72
2023/05/14 01:55:01;;;;;;;43.97;32.45;;;16.10;99.90;;;;;;5035067;28;20028;-71
2023/05/14 01:57:26;;;;;;;41.95;30.92;;;16.10;99.90;;;;;;5035118;28;20036;-72
2023/05/14 01:59:52;;;;;;;41.00;30.98;;;16.10;99.90;;;;;;5034861;28;20033;-71
2023/05/14 02:02:18;;;;;;;42.40;30.83;;;16.20;99.90;;;;;;5034828;28;20482;-71
2023/05/14 02:04:43;;;;;;;41.17;32.33;;;16.10;99.90;;;;;;5034748;28;20497;-71
2023/05/14 02:07:09;;;;;;;41.28;30.48;;;16.10;99.90;;;;;;5034661;28;20079;-72
2023/05/14 02:09:35;;;;;;;46.40;31.00;;;16.10;99.90;;;;;;5034895;28;20025;-72
2023/05/14 02:12:00;;;;;;;41.30;31.92;;;16.00;99.90;;;;;;5034722;28;20033;-72
2023/05/14 02:14:26;;;;;;;46.88;31.02;;;16.00;99.90;;;;;;5034241;28;20049;-72
2023/05/14 02:16:51;;;;;;;42.15;31.95;;;16.00;99.90;;;;;;5034691;28;20406;-72
2023/05/14 02:19:17;;;;;;;41.03;30.33;;;16.10;99.90;;;;;;5034618;28;20053;-72
2023/05/14 02:21:42;;;;;;;42.33;32.95;;;16.00;99.90;;;;;;5034539;28;20037;-72
2023/05/14 02:24:08;;;;;;;43.00;31.25;;;16.00;99.90;;;;;;5033714;28;20025;-72
2023/05/14 02:26:34;;;;;;;42.50;30.55;;;16.00;99.90;;;;;;5034187;28;20037;-71
2023/05/14 02:28:59;;;;;;;45.17;32.92;;;15.90;99.90;;;;;;5034279;28;20517;-72
2023/05/14 02:31:25;;;;;;;38.05;30.92;;;15.90;99.90;;;;;;5034301;28;20478;-71
2023/05/14 02:33:50;;;;;;;45.30;32.53;;;15.90;99.90;;;;;;5033880;28;20075;-71
2023/05/14 02:36:16;;;;;;;41.05;31.15;;;15.90;99.90;;;;;;5034676;28;20026;-72
2023/05/14 02:38:41;;;;;;;43.03;31.38;;;15.90;99.90;;;;;;5034506;28;20026;-72
2023/05/14 02:41:07;;;;;;;38.80;30.83;;;15.80;99.90;;;;;;5034214;28;20549;-71
2023/05/14 02:43:33;;;;;;;41.50;32.22;;;15.90;99.90;;;;;;5033952;28;20028;-72
2023/05/14 02:45:58;;;;;;;50.72;32.65;;;15.90;99.90;;;;;;5034211;28;20060;-72
2023/05/14 02:48:24;;;;;;;47.13;31.90;;;15.90;99.90;;;;;;5033910;28;20427;-72
2023/05/14 02:50:51;;;;;;;42.85;31.75;;;15.80;99.90;;;;;;5034078;28;20108;-72
2023/05/14 02:53:16;;;;;;;43.20;33.10;;;15.90;99.90;;;;;;5033813;28;20017;-72
2023/05/14 02:55:42;;;;;;;44.67;33.65;;;15.90;99.90;;;;;;5034069;28;20371;-72
2023/05/14 02:58:09;;;;;;;50.88;34.75;;;15.90;99.90;;;;;;5033690;28;20053;-72
2023/05/14 03:00:34;;;;;;;49.25;35.00;;;15.80;99.90;;;;;;5033800;28;20426;-72
2023/05/14 03:03:00;;;;;;;42.47;33.83;;;15.80;99.90;;;;;;5033619;28;20021;-72
2023/05/14 03:05:25;;;;;;;48.67;33.13;;;15.80;99.90;;;;;;5033665;28;20122;-72
2023/05/14 03:07:52;;;;;;;52.30;35.05;;;15.80;99.90;;;;;;5032487;28;20030;-72
2023/05/14 03:10:18;;;;;;;48.88;34.90;;;15.80;99.90;;;;;;5033461;28;20629;-72
2023/05/14 03:12:44;;;;;;;48.95;34.45;;;15.80;99.90;;;;;;5033372;28;20035;-72
2023/05/14 03:15:10;;;;;;;49.08;33.67;;;15.80;99.90;;;;;;5033895;28;20028;-72
2023/05/14 03:17:36;;;;;;;46.65;35.63;;;15.80;99.90;;;;;;5033537;28;20084;-72
2023/05/14 03:20:02;;;;;;;50.20;34.28;;;15.80;99.90;;;;;;5033611;28;20021;-72
2023/05/14 03:22:28;;;;;;;44.78;34.33;;;15.80;99.90;;;;;;5033215;28;20105;-72
2023/05/14 03:24:53;;;;;;;51.90;34.75;;;15.70;99.90;;;;;;5033258;28;20056;-72
2023/05/14 03:27:19;;;;;;;55.38;34.25;;;15.80;99.90;;;;;;5032316;28;20044;-71
2023/05/14 03:29:45;;;;;;;48.15;32.70;;;15.70;99.90;;;;;;5033341;28;20112;-72
2023/05/14 03:32:11;;;;;;;44.83;32.45;;;15.70;99.90;;;;;;5033388;28;20022;-72
2023/05/14 03:34:36;;;;;;;48.60;33.17;;;15.70;99.90;;;;;;5033212;28;20105;-72
2023/05/14 03:37:02;;;;;;;43.28;31.40;;;15.80;99.90;;;;;;5033235;28;20470;-72
2023/05/14 03:39:28;;;;;;;49.85;32.33;;;15.80;99.90;;;;;;5032985;28;20018;-72
2023/05/14 03:41:55;;;;;;;48.17;33.67;;;15.70;99.90;;;;;;5032841;28;20437;-72
2023/05/14 03:44:21;;;;;;;42.97;32.00;;;15.70;99.90;;;;;;5032329;28;20079;-71
2023/05/14 03:46:47;;;;;;;44.00;32.72;;;15.70;99.90;;;;;;5033202;28;20112;-72
2023/05/14 03:49:12;;;;;;;45.00;31.50;;;15.70;99.90;;;;;;5031633;28;20021;-71
2023/05/14 03:51:38;;;;;;;46.28;31.33;;;15.60;99.90;;;;;;5033107;28;20028;-72
2023/05/14 03:54:04;;;;;;;49.30;31.38;;;15.60;99.90;;;;;;5033231;28;20405;-72
2023/05/14 03:56:29;;;;;;;43.55;31.40;;;15.60;99.90;;;;;;5031372;28;20533;-72
2023/05/14 03:58:55;;;;;;;41.67;30.73;;;15.60;99.90;;;;;;5032929;28;20029;-73
2023/05/14 04:01:20;;;;;;;44.08;29.80;;;15.70;99.90;;;;;;5032860;28;20407;-73
2023/05/14 04:03:46;;;;;;;43.90;29.17;;;15.70;99.90;;;;;;5033370;28;20076;-73
2023/05/14 04:06:12;;;;;;;40.95;29.85;;;15.70;99.90;;;;;;5033013;28;20022;-72
2023/05/14 04:08:37;;;;;;;40.70;29.70;;;15.70;99.90;;;;;;5032629;28;20088;-73
2023/05/14 04:11:03;;;;;;;45.65;29.55;;;15.60;99.90;;;;;;5032498;28;20351;-72
2023/05/14 04:13:28;;;;;;;46.90;30.90;;;15.70;99.90;;;;;;5032670;28;20478;-72
2023/05/14 04:15:54;;;;;;;40.85;29.58;;;15.60;99.90;;;;;;5032912;28;20466;-72
2023/05/14 04:18:20;;;;;;;41.33;30.45;;;15.60;99.90;;;;;;5032785;28;20021;-71
2023/05/14 04:20:45;;;;;;;42.85;29.38;;;15.70;99.90;;;;;;5032475;28;20025;-72
2023/05/14 04:23:11;;;;;;;47.38;31.50;;;15.60;99.90;;;;;;5032808;28;20037;-72
2023/05/14 04:25:37;;;;;;;44.80;30.45;;;15.60;99.90;;;;;;5032427;28;20022;-71
2023/05/14 04:28:02;;;;;;;42.60;29.80;;;15.60;99.90;;;;;;5032332;28;20132;-72
2023/05/14 04:30:28;;;;;;;47.35;31.77;;;15.60;99.90;;;;;;5032586;28;20083;-72
2023/05/14 04:32:54;;;;;;;47.15;31.45;;;15.70;99.90;;;;;;5031552;28;20044;-72
2023/05/14 04:35:20;;;;;;;49.80;31.77;;;15.70;99.90;;;;;;5036720;28;20025;-73
2023/05/14 04:37:46;;;;;;;33.33;25.65;;;15.70;99.90;;;;;;5041103;28;20022;-75
2023/05/14 04:40:12;;;;;;;40.55;28.60;;;15.80;99.90;;;;;;5049426;28;20036;-73
2023/05/14 04:42:38;;;;;;;43.58;29.20;;;15.80;99.90;;;;;;5034248;28;20028;-76
2023/05/14 04:45:05;;;;;;;47.50;31.92;;;15.80;99.90;;;;;;5035691;28;20121;-74
2023/05/14 04:47:31;;;;;;;41.25;31.58;;;15.90;99.90;;;;;;5039867;28;20026;-75
2023/05/14 04:49:56;;;;;;;48.83;31.52;;;15.80;99.90;;;;;;5032107;28;20118;-75
2023/05/14 04:52:22;;;;;;;45.58;30.33;;;15.80;99.90;;;;;;5036508;28;20483;-73
2023/05/14 04:54:48;;;;;;;44.35;31.77;;;15.80;99.90;;;;;;5034082;28;20088;-73
2023/05/14 04:57:15;;;;;;;41.95;31.10;;;15.80;99.90;;;;;;5035338;28;20025;-72
2023/05/14 04:59:40;;;;;;;48.97;34.25;;;15.80;99.90;;;;;;5035354;28;20057;-73
2023/05/14 05:02:06;;;;;;;49.80;31.88;;;15.80;99.90;;;;;;5037352;28;20065;-74
2023/05/14 05:04:31;;;;;;;46.03;32.72;;;15.80;99.90;;;;;;5047469;28;20063;-74
2023/05/14 05:06:57;;;;;;;44.63;31.92;;;15.80;99.90;;;;;;5035706;28;20025;-75
2023/05/14 05:09:23;;;;;;;49.08;31.75;;;15.80;99.90;;;;;;5034793;28;20447;-73
2023/05/14 05:11:48;;;;;;;41.83;31.35;;;15.80;99.90;;;;;;5034498;28;20079;-74
2023/05/14 05:14:14;;;;;;;47.70;31.80;;;15.80;99.90;;;;;;5040942;28;20548;-74
2023/05/14 05:16:39;;;;;;;45.20;31.63;;;15.70;99.90;;;;;;5047984;28;20074;-75
2023/05/14 05:19:05;;;;;;;45.20;32.17;;;15.80;99.90;;;;;;5046992;28;20017;-74
2023/05/14 05:21:31;;;;;;;38.72;30.08;;;15.70;99.90;;;;;;5043053;28;20474;-76
2023/05/14 05:23:56;;;;;;;43.50;31.30;;;15.70;99.90;;;;;;5035842;28;20026;-76
2023/05/14 05:26:23;;;;;;;46.88;30.60;;;15.80;99.90;;;;;;5042125;28;20033;-74
2023/05/14 05:28:48;;;;;;;40.38;30.27;;;15.70;99.90;;;;;;5044587;28;20024;-73
2023/05/14 05:31:14;;;;;;;42.63;31.42;;;15.80;99.90;;;;;;5048675;28;20036;-73
2023/05/14 05:33:40;;;;;;;43.90;30.45;;;15.80;99.90;;;;;;5034924;28;20029;-75
2023/05/14 05:36:05;;;;;;;50.22;32.10;;;15.80;99.90;;;;;;5043044;28;20039;-73
2023/05/14 05:38:31;;;;;;;43.60;31.33;;;15.80;99.90;;;;;;5041174;28;20028;-74
2023/05/14 05:40:57;;;;;;;39.78;29.95;;;15.80;99.90;;;;;;5042384;28;20482;-73
2023/05/14 05:43:22;;;;;;;40.47;29.70;;;15.80;99.90;;;;;;5034495;28;20022;-74
2023/05/14 05:45:48;;;;;;;44.28;31.67;;;15.70;99.90;;;;;;5036412;28;20656;-72
2023/05/14 05:48:13;;;;;;;35.70;25.88;;;15.80;99.90;;;;;;5035087;28;20076;-74
2023/05/14 05:50:39;;;;;;;43.63;29.83;;;15.90;99.90;;;;;;5037160;28;20078;-74
2023/05/14 05:53:05;;;;;;;36.47;29.00;;;15.90;99.90;;;;;;5042955;28;20492;-74
2023/05/14 05:55:30;;;;;;;39.17;30.95;;;15.90;99.90;;;;;;5034970;28;20036;-74
2023/05/14 05:57:56;;;;;;;40.70;29.05;;;15.90;99.90;;;;;;5032997;28;20352;-76
2023/05/14 06:00:22;;;;;;;41.00;28.92;;;15.90;99.90;;;;;;5034616;28;20136;-76
2023/05/14 06:02:48;;;;;;;37.63;29.38;;;15.90;99.90;;;;;;5038770;28;20048;-74
2023/05/14 06:05:13;;;;;;;38.00;29.67;;;15.90;99.90;;;;;;5036983;28;20672;-74
2023/05/14 06:07:39;;;;;;;34.42;26.52;;;15.90;99.90;;;;;;5043762;28;20091;-74
2023/05/14 06:10:05;;;;;;;43.08;30.27;;;15.80;99.90;;;;;;5035296;28;20499;-75
2023/05/14 06:12:31;;;;;;;41.15;29.83;;;15.90;99.90;;;;;;5038412;28;20025;-73
2023/05/14 06:14:56;;;;;;;37.65;28.02;;;15.90;99.90;;;;;;5038052;28;20096;-73
2023/05/14 06:17:25;;;;;;;37.97;29.67;;;15.90;99.90;;;;;;5045573;28;20063;-75
2023/05/14 06:19:51;;;;;;;35.83;28.38;;;15.90;99.90;;;;;;5047011;28;20029;-75
2023/05/14 06:22:17;;;;;;;36.45;27.85;;;15.90;99.90;;;;;;5033044;28;20026;-74
2023/05/14 06:24:43;;;;;;;38.78;29.35;;;16.00;99.90;;;;;;5038613;28;20033;-75
2023/05/14 06:27:10;;;;;;;35.53;27.10;;;15.90;99.90;;;;;;5046468;28;20459;-72
2023/05/14 06:29:36;;;;;;;34.90;28.98;;;15.90;99.90;;;;;;5038947;28;20072;-72
2023/05/14 06:32:02;;;;;;;41.47;29.88;;;15.90;99.90;;;;;;5033816;28;20021;-72
2023/05/14 06:34:29;;;;;;;32.67;28.40;;;16.00;99.90;;;;;;5035053;28;20030;-72
2023/05/14 06:36:54;;;;;;;36.20;28.15;;;16.00;99.90;;;;;;5030572;28;20073;-72
2023/05/14 06:39:20;;;;;;;36.75;28.58;;;16.00;99.90;;;;;;5036930;28;20481;-73
2023/05/14 06:41:46;;;;;;;37.03;27.48;;;16.00;99.90;;;;;;5033448;28;20041;-73
2023/05/14 06:44:11;;;;;;;35.20;28.67;;;16.00;99.90;;;;;;5031148;28;20014;-73
2023/05/14 06:46:37;;;;;;;31.90;26.70;;;16.00;99.90;;;;;;5035657;28;20470;-73
2023/05/14 06:49:03;;;;;;;37.08;27.85;;;16.00;99.90;;;;;;5034334;28;20033;-72
2023/05/14 06:51:28;;;;;;;32.22;26.40;;;16.00;99.90;;;;;;5032220;28;20029;-72
2023/05/14 06:53:54;;;;;;;32.65;26.40;;;16.00;99.90;;;;;;5036075;28;20052;-73
2023/05/14 06:56:21;;;;;;;31.20;27.50;;;16.00;99.90;;;;;;5039483;28;20072;-72
2023/05/14 06:58:47;;;;;;;32.90;28.52;;;16.10;99.90;;;;;;5041099;28;20029;-73
2023/05/14 07:01:13;;;;;;;36.42;29.20;;;16.00;99.90;;;;;;5045850;28;20507;-73
2023/05/14 07:03:38;;;;;;;35.13;28.15;;;16.10;99.90;;;;;;5047413;28;20068;-72
2023/05/14 07:06:05;;;;;;;35.95;29.38;;;16.10;99.90;;;;;;5049420;28;20086;-72
2023/05/14 07:08:31;;;;;;;33.50;29.58;;;16.10;99.90;;;;;;5033661;28;20076;-73
2023/05/14 07:10:57;;;;;;;30.83;27.30;;;16.10;99.90;;;;;;5058484;28;20024;-73
2023/05/14 07:13:23;;;;;;;33.97;28.55;;;16.10;99.90;;;;;;5046599;28;20033;-72
2023/05/14 07:15:48;;;;;;;35.42;30.38;;;16.10;99.90;;;;;;5042120;28;20112;-72
2023/05/14 07:18:14;;;;;;;35.78;29.27;;;16.20;99.90;;;;;;5037951;28;20898;-72
2023/05/14 07:20:39;;;;;;;37.58;29.75;;;16.10;99.90;;;;;;5048920;28;20072;-72
2023/05/14 07:23:05;;;;;;;39.72;31.35;;;16.20;99.90;;;;;;5065385;28;20025;-73
2023/05/14 07:25:31;;;;;;;32.55;29.08;;;16.20;99.90;;;;;;5038327;28;20525;-73
2023/05/14 07:27:57;;;;;;;35.70;29.55;;;16.20;99.90;;;;;;5055298;28;20393;-73
2023/05/14 07:30:23;;;;;;;34.63;28.85;;;16.20;99.90;;;;;;5054697;28;20033;-72
2023/05/14 07:32:48;;;;;;;37.03;28.05;;;16.20;99.90;;;;;;5057414;28;20432;-72
2023/05/14 07:35:14;;;;;;;36.47;30.80;;;16.30;99.90;;;;;;5049503;28;20032;-72
2023/05/14 07:37:41;;;;;;;35.90;31.55;;;16.40;99.90;;;;;;5047723;28;20398;-72
2023/05/14 07:40:07;;;;;;;35.10;31.35;;;16.30;99.90;;;;;;5061583;28;20036;-71
2023/05/14 07:42:33;;;;;;;43.33;33.72;;;16.30;99.90;;;;;;5054432;28;20076;-71
2023/05/14 07:44:59;;;;;;;33.88;30.10;;;16.40;99.90;;;;;;5039706;28;20540;-71
2023/05/14 07:47:24;;;;;;;39.63;34.85;;;16.40;99.90;;;;;;5035929;28;20025;-72
2023/05/14 07:49:54;;;;;;;35.42;31.35;;;16.40;99.90;;;;;;5052112;28;20021;-71
2023/05/14 07:52:19;;;;;;;39.30;33.97;;;16.40;99.90;;;;;;5051981;28;20013;-71
2023/05/14 07:54:45;;;;;;;35.30;31.67;;;16.40;99.90;;;;;;5040509;28;20498;-71
2023/05/14 07:57:10;;;;;;;35.38;31.65;;;16.40;99.90;;;;;;5033401;28;20100;-72
2023/05/14 07:59:36;;;;;;;35.72;30.45;;;16.40;99.90;;;;;;5031925;28;20037;-72
2023/05/14 08:02:01;;;;;;;31.45;28.20;;;16.40;99.90;;;;;;5048888;28;20496;-72
2023/05/14 08:04:27;;;;;;;32.17;28.80;;;16.50;99.90;;;;;;5051988;28;20083;-70
2023/05/14 08:06:54;;;;;;;32.05;28.80;;;16.50;99.90;;;;;;5046521;28;20513;-72
2023/05/14 08:09:19;;;;;;;32.10;28.83;;;16.50;99.90;;;;;;5042711;28;20026;-72
2023/05/14 08:11:45;;;;;;;32.88;27.95;;;16.50;99.90;;;;;;5033450;28;20067;-72
2023/05/14 08:14:11;;;;;;;33.10;27.95;;;16.50;99.90;;;;;;5036419;28;20133;-72
2023/05/14 08:16:37;;;;;;;31.65;27.58;;;16.50;99.90;;;;;;5038787;28;20033;-72
2023/05/14 08:19:03;;;;;;;32.47;26.77;;;16.50;99.90;;;;;;5048779;28;20383;-72
2023/05/14 08:21:28;;;;;;;29.85;26.38;;;16.50;99.90;;;;;;5043293;28;20545;-72
2023/05/14 08:23:54;;;;;;;27.92;24.98;;;16.50;99.90;;;;;;5030469;28;20541;-72
2023/05/14 08:26:20;;;;;;;31.00;26.02;;;16.60;99.90;;;;;;5047466;28;20033;-70
2023/05/14 08:28:46;;;;;;;31.02;25.95;;;16.60;99.90;;;;;;5041114;28;20024;-69
2023/05/14 08:31:13;;;;;;;27.33;24.25;;;16.60;99.90;;;;;;5046000;28;20052;-69
2023/05/14 08:33:40;;;;;;;28.40;25.30;;;16.60;99.90;;;;;;5059033;28;20017;-69
2023/05/14 08:36:06;;;;;;;28.30;24.30;;;16.60;99.90;;;;;;5052613;28;20087;-70
2023/05/14 08:38:32;;;;;;;26.15;23.13;;;16.60;99.90;;;;;;5040072;28;20487;-69
2023/05/14 08:40:59;;;;;;;32.33;25.55;;;16.70;99.90;;;;;;5057830;28;20434;-69
2023/05/14 08:43:29;;;;;;;30.85;25.90;;;16.70;99.90;;;;;;5056567;28;20028;-69
2023/05/14 08:45:59;;;;;;;27.15;24.25;;;16.70;99.90;;;;;;5049637;28;20033;-69
2023/05/14 08:48:30;;;;;;;25.38;22.65;;;16.70;99.90;;;;;;5042361;28;20091;-69
2023/05/14 08:50:56;;;;;;;28.33;25.33;;;16.80;99.90;;;;;;5048392;28;20474;-69
2023/05/14 08:53:22;;;;;;;26.92;22.80;;;16.80;99.90;;;;;;5043798;28;20031;-69
2023/05/14 08:55:50;;;;;;;25.88;23.00;;;16.80;99.90;;;;;;5038126;28;20033;-69
2023/05/14 08:58:16;;;;;;;25.33;21.95;;;16.90;99.90;;;;;;5054320;28;20059;-69
2023/05/14 09:00:42;;;;;;;25.27;22.50;;;16.90;99.90;;;;;;5060548;28;20072;-69
2023/05/14 09:03:08;;;;;;;26.08;23.35;;;16.90;99.80;;;;;;5043491;28;20554;-69
2023/05/14 09:05:34;;;;;;;27.95;24.33;;;16.90;99.90;;;;;;5034497;28;20517;-69
2023/05/14 09:08:00;;;;;;;24.65;22.10;;;16.90;99.90;;;;;;5042986;28;20021;-70
2023/05/14 09:10:26;;;;;;;24.40;22.00;;;17.00;99.90;;;;;;5042774;28;20435;-71
2023/05/14 09:12:52;;;;;;;24.27;21.58;;;17.00;99.90;;;;;;5045170;28;20025;-68
2023/05/14 09:15:18;;;;;;;24.25;21.30;;;17.10;99.00;;;;;;5045568;28;20083;-71
2023/05/14 09:17:46;;;;;;;24.35;21.70;;;17.10;99.40;;;;;;5041053;28;20025;-68
2023/05/14 09:20:13;;;;;;;24.33;20.50;;;17.10;99.80;;;;;;5053361;28;20036;-70
2023/05/14 09:22:39;;;;;;;23.27;19.88;;;17.10;99.90;;;;;;5053986;28;20033;-71
2023/05/14 09:25:08;;;;;;;24.55;20.55;;;17.20;99.90;;;;;;5053682;28;20036;-70
2023/05/14 09:27:34;;;;;;;24.42;20.02;;;17.20;99.90;;;;;;5054368;28;20078;-71
2023/05/14 09:30:08;;;;;;;24.17;21.38;;;17.20;99.90;;;;;;5050978;28;20032;-72
2023/05/14 09:32:36;;;;;;;24.10;21.40;;;17.30;99.90;;;;;;5048637;28;20258;-71
2023/05/14 09:35:16;;;;;;;28.45;20.25;;;17.30;99.90;;;;;;5056616;28;20465;-70
2023/05/14 09:37:46;;;;;;;20.05;18.10;;;17.30;99.90;;;;;;5055367;28;20079;-70
2023/05/14 09:40:13;;;;;;;21.25;17.30;;;17.30;99.90;;;;;;5057074;28;20020;-71
2023/05/14 09:42:40;;;;;;;21.45;18.15;;;17.30;99.90;;;;;;5057349;28;20029;-72
2023/05/14 09:45:09;;;;;;;21.42;17.83;;;17.40;99.90;;;;;;5050367;28;20013;-71
2023/05/14 09:47:36;;;;;;;18.95;16.83;;;17.40;99.90;;;;;;5050499;28;20029;-70
2023/05/14 09:50:03;;;;;;;28.38;21.30;;;17.50;99.90;;;;;;5063445;28;20033;-69
2023/05/14 09:52:29;;;;;;;17.75;15.80;;;17.50;99.90;;;;;;5065912;28;20025;-71
2023/05/14 09:54:55;;;;;;;20.80;18.65;;;17.50;99.90;;;;;;5055245;28;20040;-70
2023/05/14 09:57:21;;;;;;;25.90;21.25;;;17.50;99.90;;;;;;5040082;28;20016;-70
2023/05/14 09:59:47;;;;;;;23.83;20.92;;;17.50;99.90;;;;;;5055261;28;20718;-70
2023/05/14 10:02:21;;;;;;;22.38;20.05;;;17.60;99.90;;;;;;5042583;28;20040;-71
2023/05/14 10:04:50;;;;;;;19.70;17.80;;;17.60;99.90;;;;;;5040701;28;20486;-69
2023/05/14 10:07:21;;;;;;;22.08;19.23;;;17.60;99.90;;;;;;5057267;28;20205;-71
2023/05/14 10:09:47;;;;;;;23.33;18.00;;;17.70;99.90;;;;;;5044589;28;20099;-72
2023/05/14 10:12:15;;;;;;;23.13;20.92;;;17.70;99.90;;;;;;5062171;28;20103;-71
2023/05/14 10:14:52;;;;;;;24.10;18.77;;;17.70;99.80;;;;;;5057072;28;20017;-69
2023/05/14 10:17:20;;;;;;;22.50;20.10;;;17.70;99.90;;;;;;5045312;28;20417;-68
2023/05/14 10:19:53;;;;;;;26.40;22.02;;;17.80;99.90;;;;;;5054845;28;20032;-68
2023/05/14 10:22:26;;;;;;;27.55;24.63;;;17.80;99.90;;;;;;5057221;28;20043;-69
2023/05/14 10:24:52;;;;;;;23.20;20.85;;;17.80;99.90;;;;;;5043173;28;20502;-71
2023/05/14 10:27:22;;;;;;;23.13;20.70;;;17.80;99.90;;;;;;5060670;28;20037;-67
2023/05/14 10:29:55;;;;;;;22.63;20.35;;;17.90;99.70;;;;;;5053827;28;20029;-69
2023/05/14 10:32:23;;;;;;;21.33;19.25;;;17.90;99.90;;;;;;5056922;28;20024;-71
2023/05/14 10:34:50;;;;;;;24.25;21.90;;;17.90;99.10;;;;;;5062315;28;20028;-69
2023/05/14 10:37:21;;;;;;;23.05;19.77;;;17.90;99.90;;;;;;5040478;28;20060;-69
2023/05/14 10:39:57;;;;;;;25.52;19.85;;;17.90;99.90;;;;;;5047619;28;20051;-68
2023/05/14 10:42:29;;;;;;;19.92;17.88;;;18.00;99.90;;;;;;5050059;28;20049;-69
2023/05/14 10:44:57;;;;;;;23.48;18.98;;;18.00;99.80;;;;;;5066743;28;20129;-72
2023/05/14 10:47:27;;;;;;;20.55;18.33;;;18.00;99.90;;;;;;5052566;28;20075;-70
2023/05/14 10:49:57;;;;;;;20.17;18.05;;;18.00;99.90;;;;;;5037204;28;20080;-70
2023/05/14 10:52:23;;;;;;;19.83;17.70;;;18.10;99.90;;;;;;5049399;28;20020;-71
2023/05/14 10:54:54;;;;;;;19.65;17.17;;;18.10;99.90;;;;;;5049654;28;20102;-70
2023/05/14 10:57:22;;;;;;;19.25;17.23;;;18.10;99.90;;;;;;5060104;28;20032;-71
2023/05/14 10:59:52;;;;;;;20.75;18.58;;;18.10;99.90;;;;;;5043645;28;20055;-72
2023/05/14 11:02:23;;;;;;;17.92;16.15;;;18.10;99.90;;;;;;5054047;28;20122;-72
2023/05/14 11:04:54;;;;;;;18.50;16.55;;;18.10;99.90;;;;;;5054648;28;20104;-72
2023/05/14 11:07:24;;;;;;;18.85;16.85;;;18.20;98.70;;;;;;5050803;28;20024;-72
2023/05/14 11:09:51;;;;;;;18.15;16.35;;;18.20;98.50;;;;;;5041208;28;20117;-71
2023/05/14 11:12:17;;;;;;;17.90;15.52;;;18.20;99.60;;;;;;5058249;28;20028;-71
2023/05/14 11:14:44;;;;;;;21.17;16.90;;;18.20;99.90;;;;;;5058609;28;20127;-69
2023/05/14 11:17:10;;;;;;;16.60;15.00;;;18.20;99.10;;;;;;5038801;28;20037;-72
2023/05/14 11:19:35;;;;;;;22.75;17.77;;;18.20;98.90;;;;;;5046545;28;20031;-69
2023/05/14 11:22:01;;;;;;;19.58;17.23;;;18.20;98.50;;;;;;5041341;28;20498;-69
2023/05/14 11:24:27;;;;;;;22.45;16.30;;;18.20;99.30;;;;;;5047866;28;20041;-71
2023/05/14 11:26:54;;;;;;;17.92;15.52;;;18.20;99.20;;;;;;5039569;28;20411;-69
2023/05/14 11:29:20;;;;;;;16.17;14.57;;;18.30;98.90;;;;;;5051424;28;20051;-71
2023/05/14 11:31:46;;;;;;;20.08;15.57;;;18.30;99.90;;;;;;5048656;28;20048;-71
2023/05/14 11:34:11;;;;;;;16.90;15.20;;;18.30;99.60;;;;;;5036449;28;20030;-69
2023/05/14 11:36:38;;;;;;;18.35;16.25;;;18.30;99.70;;;;;;5042226;28;20072;-72
2023/05/14 11:39:04;;;;;;;17.90;14.90;;;18.40;98.50;;;;;;5039175;28;20106;-72
2023/05/14 11:41:30;;;;;;;16.92;15.15;;;18.40;99.00;;;;;;5037940;28;20041;-72
2023/05/14 11:43:56;;;;;;;19.25;15.32;;;18.40;98.80;;;;;;5042814;28;20032;-73
2023/05/14 11:46:23;;;;;;;17.20;15.45;;;18.40;98.80;;;;;;5037342;28;20021;-72
2023/05/14 11:48:49;;;;;;;18.23;13.80;;;18.40;97.60;;;;;;5043562;28;20055;-72
2023/05/14 11:51:15;;;;;;;16.17;13.55;;;18.40;98.60;;;;;;5053418;28;20029;-72
2023/05/14 11:53:41;;;;;;;15.05;13.27;;;18.40;99.10;;;;;;5041683;28;20059;-71
2023/05/14 11:56:06;;;;;;;17.45;13.30;;;18.50;99.90;;;;;;5040593;28;20024;-72
2023/05/14 11:58:32;;;;;;;18.80;14.50;;;18.50;99.50;;;;;;5046772;28;20040;-71
2023/05/14 12:00:59;;;;;;;17.05;14.57;;;18.50;99.90;;;;;;5036962;28;20470;-71
2023/05/14 12:03:28;;;;;;;14.93;12.73;;;18.50;99.60;;;;;;5051023;28;20494;-71
2023/05/14 12:06:06;;;;;;;16.05;11.25;;;18.50;99.80;;;;;;5041519;28;20048;-72
2023/05/14 12:08:36;;;;;;;16.85;13.10;;;18.50;99.90;;;;;;5038061;28;20032;-70
2023/05/14 12:11:02;;;;;;;16.02;13.32;;;18.50;99.90;;;;;;5042255;28;20025;-71
2023/05/14 12:13:32;;;;;;;18.20;14.82;;;18.60;99.90;;;;;;5041881;28;20028;-71
2023/05/14 12:16:00;;;;;;;19.92;13.95;;;18.60;98.40;;;;;;5044796;28;20028;-71
2023/05/14 12:18:28;;;;;;;16.27;12.13;;;18.60;98.20;;;;;;5056045;28;20020;-71
2023/05/14 12:20:54;;;;;;;15.50;11.52;;;18.60;98.60;;;;;;5054787;28;20040;-71
2023/05/14 12:23:30;;;;;;;13.63;11.60;;;18.60;99.10;;;;;;5058700;28;20025;-71
2023/05/14 12:26:08;;;;;;;12.27;10.98;;;18.60;99.50;;;;;;5046212;28;20028;-71